Warning: Javascript must be enabled to use all the features on this page!


Page Loading - Please Wait...

Click to hideNews Bulletins

Peak Streamflow for the Nation

USGS 11046530 SAN JUAN C AT LA NOVIA ST BR AT SAN JUAN CAPIS CA

Orange County, California
Hydrologic Unit Code 18070301
Latitude  33°30'09", Longitude 117°38'50" NAD27
Drainage area 109  square miles
Output formats
Table
Graph
Tab-separated file
peakfq (watstore) format
Reselect output format
Water
Year
Date Gage
Height
(feet)
Stream-
flow
(cfs)
1986 1986-04-06 12.30 680
1987 1987-01-04 12.68 162
1988 1987-12-17 13.58 778
1989 1988-12-25 13.27 382
1990 1990-02-17 13.96 399
1991 1991-03-01 15.67 2,580
1992 1992-02-12 15.12 1,470
1993 1993-01-16 18.64 8,320
1994 1994-03-25 15.01 638
1995 1995-03-05 20.66 25,600
1996 1996-01-31 11.52 248
1997 1997-01-26 13.20 2,070
1998 1998-02-23 17.02 18,300
1999 1998-12-06 11.202 123
2000 2000-02-21 12.80 1,030
2001 2001-02-12 12.88 859
2002 2001-11-24 12.68 946C
2003 2003-03-16 13.95 2,300C
2004 2004-02-26 13.52 1,060C
2005 2005-01-11 19.44 28,5002,C
2006 2006-04-04 12.09 578C
2007 2007-01-31 10.80 73.0C
2008 2008-01-05 14.35 1,420C
2009 2008-12-15 13.17 589C
2010 2010-01-21 14.29 1,610C
2011 2010-12-22 22.50 17,6002,C
2012 2012-03-17 12.22 127C
2013 2013-01-25 11.392 19.0C
2014 2014-02-28 12.22 105C
2015 2014-12-04 12.40 110C
2016 2015-11-27 12.07 60.0C
2017 2017-01-22 15.19 3,780C
2018 2018-01-09 11.17 492C
2019 2019-02-14 16.05 5,620C
2020 2020-04-10 12.97 751C
2021 2021-01-29 12.50 135C
?
  Peak Gage-Height Qualification Codes.
?
  Peak Streamflow Qualification Codes.